Time;durP1;ratioP1;P1;durP2;ratioP2;P2;SDS_P1;SDS_P2;PMS_P1;PMS_P2;Temp;Humidity;BMP_temperature;BMP_pressure;BME280_temperature;BME280_humidity;BME280_pressure;Samples;Min_cycle;Max_cycle;Signal;HPM_P1;HPM_P2
2023/08/30 00:00:07;;;;;;;18.50;10.38;;;;;;;22.52;74.06;94332.22;5051046;28;20037;-88
2023/08/30 00:02:33;;;;;;;14.00;9.98;;;;;;;22.70;74.20;94330.50;5051119;28;20500;-86
2023/08/30 00:05:03;;;;;;;20.23;9.77;;;;;;;22.51;72.14;94344.94;5035253;28;20037;-87
2023/08/30 00:07:29;;;;;;;16.50;8.50;;;;;;;22.41;69.91;94348.31;5034538;28;20590;-87
2023/08/30 00:09:54;;;;;;;16.60;10.52;;;;;;;22.42;71.61;94341.00;5035914;28;20038;-88
2023/08/30 00:12:21;;;;;;;13.80;8.35;;;;;;;22.21;68.05;94344.97;5051127;28;20519;-87
2023/08/30 00:14:47;;;;;;;15.18;8.68;;;;;;;22.23;66.30;94361.59;5034635;28;20128;-88
2023/08/30 00:17:12;;;;;;;15.68;7.75;;;;;;;21.94;65.39;94365.81;5035294;28;20068;-86
2023/08/30 00:19:38;;;;;;;15.48;7.50;;;;;;;21.84;66.94;94338.66;5034313;28;20037;-87
2023/08/30 00:22:03;;;;;;;14.57;8.52;;;;;;;21.91;66.46;94336.84;5034373;28;20029;-87
2023/08/30 00:24:29;;;;;;;12.77;7.40;;;;;;;21.77;66.85;94338.56;5033904;28;20396;-87
2023/08/30 00:26:54;;;;;;;15.68;7.88;;;;;;;22.02;66.26;94355.91;5033878;28;20064;-88
2023/08/30 00:29:19;;;;;;;15.52;7.95;;;;;;;21.92;65.09;94343.78;5033723;28;20030;-87
2023/08/30 00:31:45;;;;;;;14.52;8.13;;;;;;;21.61;64.92;94362.22;5035446;28;20056;-88
2023/08/30 00:34:10;;;;;;;13.68;7.05;;;;;;;21.27;66.58;94354.00;5034124;28;20033;-86
2023/08/30 00:36:36;;;;;;;12.35;7.15;;;;;;;21.13;66.64;94321.41;5034502;28;20292;-88
2023/08/30 00:39:03;;;;;;;10.98;6.78;;;;;;;20.96;66.13;94295.69;5035283;28;20029;-85
2023/08/30 00:41:29;;;;;;;16.45;6.90;;;;;;;20.64;67.09;94260.13;5033884;28;20041;-85
2023/08/30 00:43:54;;;;;;;11.05;7.13;;;;;;;20.80;66.60;94298.50;5035140;28;20055;-85
2023/08/30 00:46:20;;;;;;;22.45;8.15;;;;;;;20.85;67.28;94342.44;5034370;28;20105;-85
2023/08/30 00:48:45;;;;;;;14.15;7.85;;;;;;;20.78;67.74;94335.81;5033798;28;20033;-85
2023/08/30 00:51:11;;;;;;;18.17;7.93;;;;;;;20.64;66.56;94330.16;5034001;28;20044;-85
2023/08/30 00:53:37;;;;;;;12.75;7.43;;;;;;;20.77;67.04;94368.50;5035573;28;20061;-85
2023/08/30 00:56:03;;;;;;;12.77;7.65;;;;;;;20.49;67.60;94324.88;5034048;28;20044;-85
2023/08/30 00:58:29;;;;;;;16.60;7.65;;;;;;;20.56;69.64;94309.63;5035200;28;20493;-85
2023/08/30 01:00:54;;;;;;;15.07;7.97;;;;;;;20.91;67.19;94355.28;5034126;28;20033;-85
2023/08/30 01:03:21;;;;;;;12.35;7.63;;;;;;;20.87;66.59;94350.97;5035223;28;20060;-85
2023/08/30 01:05:47;;;;;;;12.20;7.03;;;;;;;20.65;66.25;94336.34;5034662;28;20052;-85
2023/08/30 01:08:13;;;;;;;21.25;8.30;;;;;;;20.91;68.61;94359.88;5033630;28;20131;-85
2023/08/30 01:10:52;;;;;;;9.95;7.28;;;;;;;21.09;66.21;94393.31;5035693;28;20481;-85
2023/08/30 01:13:20;;;;;;;13.18;6.10;;;;;;;20.89;64.63;94346.00;5035489;28;20399;-85
2023/08/30 01:15:51;;;;;;;14.80;7.07;;;;;;;21.40;65.25;94387.72;5034145;28;20033;-86
2023/08/30 01:18:26;;;;;;;10.07;6.78;;;;;;;21.41;63.39;94386.59;5033791;28;20045;-85
2023/08/30 01:20:53;;;;;;;14.73;6.90;;;;;;;21.14;62.09;94366.84;5033631;28;20455;-86
2023/08/30 01:23:56;;;;;;;14.88;6.80;;;;;;;21.53;62.46;94416.06;5034017;28;20037;-85
2023/08/30 01:26:24;;;;;;;12.02;6.85;;;;;;;21.50;63.31;94410.63;5035296;28;20033;-86
2023/08/30 01:28:52;;;;;;;12.77;6.97;;;;;;;21.42;62.13;94395.47;5033802;28;20033;-85
2023/08/30 01:31:19;;;;;;;13.55;7.70;;;;;;;21.15;63.10;94373.78;5033919;28;20466;-85
2023/08/30 01:33:45;;;;;;;10.32;6.68;;;;;;;21.31;63.54;94381.78;5032756;28;20044;-85
2023/08/30 01:36:11;;;;;;;9.85;6.25;;;;;;;21.45;64.14;94373.16;5034898;28;20494;-86
2023/08/30 01:38:38;;;;;;;13.32;6.53;;;;;;;21.57;62.62;94383.78;5033812;28;20033;-85
2023/08/30 01:41:04;;;;;;;12.80;6.80;;;;;;;21.72;64.29;94376.66;5033593;28;20129;-86
2023/08/30 01:43:31;;;;;;;11.65;6.43;;;;;;;21.72;63.53;94368.56;5033569;28;20076;-86
2023/08/30 01:45:58;;;;;;;11.65;6.90;;;;;;;21.55;64.04;94370.63;5033316;28;20462;-85
2023/08/30 01:48:26;;;;;;;13.40;6.68;;;;;;;21.59;63.47;94391.50;5034541;28;20036;-85
2023/08/30 01:50:51;;;;;;;15.65;7.03;;;;;;;21.35;63.68;94371.09;5034314;28;20068;-86
2023/08/30 01:53:17;;;;;;;14.13;6.15;;;;;;;21.34;63.54;94380.31;5033184;28;20515;-85
2023/08/30 01:55:43;;;;;;;11.95;7.32;;;;;;;21.31;64.83;94370.22;5033527;28;20106;-85
2023/08/30 01:58:09;;;;;;;14.80;6.90;;;;;;;21.62;63.72;94374.56;5033591;28;20103;-85
2023/08/30 02:00:39;;;;;;;13.48;7.25;;;;;;;21.54;65.23;94347.50;5033445;28;20045;-85
2023/08/30 02:03:11;;;;;;;19.65;7.40;;;;;;;21.95;64.28;94399.78;5034778;28;20040;-85
2023/08/30 02:06:08;;;;;;;9.25;6.47;;;;;;;21.75;65.11;94346.25;5035223;28;20045;-85
2023/08/30 02:09:09;;;;;;;13.20;6.63;;;;;;;21.97;64.35;94372.41;5029655;28;20495;-85
2023/08/30 02:11:35;;;;;;;13.13;7.05;;;;;;;22.00;63.22;94385.19;5036917;28;20041;-86
2023/08/30 02:14:01;;;;;;;13.60;7.15;;;;;;;22.08;65.38;94370.66;5043625;28;20041;-85
2023/08/30 02:16:28;;;;;;;20.63;7.93;;;;;;;22.00;65.26;94350.09;5046590;28;20076;-86
2023/08/30 02:18:54;;;;;;;12.50;7.57;;;;;;;22.28;66.04;94372.06;5047056;28;20045;-86
2023/08/30 02:21:20;;;;;;;12.15;6.75;;;;;;;21.94;61.76;94338.81;5043186;28;20026;-85
2023/08/30 02:23:52;;;;;;;17.42;6.93;;;;;;;22.25;63.95;94370.13;5036270;28;20120;-85
2023/08/30 02:26:20;;;;;;;16.10;7.78;;;;;;;21.80;63.81;94316.25;5035249;28;20040;-85
2023/08/30 02:28:46;;;;;;;13.50;6.43;;;;;;;21.68;62.11;94343.44;5034359;28;20124;-85
2023/08/30 02:31:11;;;;;;;18.38;7.20;;;;;;;21.84;63.63;94363.72;5034555;28;20112;-85
2023/08/30 02:33:37;;;;;;;18.75;8.20;;;;;;;21.87;66.03;94357.63;5035009;28;20124;-85
2023/08/30 02:36:03;;;;;;;18.88;7.55;;;;;;;21.95;66.54;94348.47;5032942;28;20401;-85
2023/08/30 02:38:28;;;;;;;16.52;7.25;;;;;;;21.73;63.67;94365.50;5032177;28;20128;-85
2023/08/30 02:40:54;;;;;;;11.63;7.13;;;;;;;21.50;63.86;94332.41;5034882;28;20034;-85
2023/08/30 02:43:19;;;;;;;17.55;7.65;;;;;;;21.81;64.79;94372.56;5032454;28;20041;-85
2023/08/30 02:45:45;;;;;;;15.63;7.55;;;;;;;21.62;64.04;94353.78;5033535;28;20034;-86
2023/08/30 02:48:10;;;;;;;17.98;7.28;;;;;;;21.52;64.74;94335.50;5037079;28;20039;-86
2023/08/30 02:50:36;;;;;;;15.18;7.22;;;;;;;21.66;64.47;94351.91;5038144;28;20034;-85
2023/08/30 02:53:01;;;;;;;15.93;7.60;;;;;;;21.81;64.89;94358.31;5036459;28;20037;-85
2023/08/30 02:55:26;;;;;;;22.60;8.35;;;;;;;21.66;64.78;94343.81;5038514;28;20073;-85
2023/08/30 02:57:52;;;;;;;17.02;7.75;;;;;;;21.76;63.31;94348.56;5036773;28;20045;-85
2023/08/30 03:00:17;;;;;;;15.32;7.43;;;;;;;21.75;64.71;94346.25;5036137;28;20037;-80
2023/08/30 03:02:43;;;;;;;11.43;6.97;;;;;;;21.45;64.88;94295.72;5036863;28;20090;-80
2023/08/30 03:05:08;;;;;;;13.95;7.97;;;;;;;21.81;67.01;94340.19;5035529;28;20033;-80
2023/08/30 03:07:34;;;;;;;15.35;7.15;;;;;;;21.77;63.92;94341.25;5036719;28;20029;-80
2023/08/30 03:09:59;;;;;;;11.10;7.45;;;;;;;21.46;64.23;94313.44;5035011;28;20456;-81
2023/08/30 03:12:25;;;;;;;16.63;7.00;;;;;;;21.73;64.37;94359.34;5035020;28;20056;-80
2023/08/30 03:14:51;;;;;;;18.73;7.57;;;;;;;21.41;63.44;94346.13;5036247;28;20029;-80
2023/08/30 03:17:16;;;;;;;17.58;7.18;;;;;;;21.29;65.44;94323.97;5035238;28;20033;-80
2023/08/30 03:19:42;;;;;;;14.15;7.95;;;;;;;21.49;63.86;94342.41;5035057;28;20040;-80
2023/08/30 03:22:07;;;;;;;15.75;8.13;;;;;;;21.62;65.95;94361.09;5036305;28;20032;-81
2023/08/30 03:24:32;;;;;;;15.48;7.03;;;;;;;21.63;65.50;94378.84;5035318;28;20037;-80
2023/08/30 03:26:59;;;;;;;14.82;7.50;;;;;;;21.53;67.13;94355.94;5034742;28;20034;-81
2023/08/30 03:29:25;;;;;;;16.05;7.40;;;;;;;21.56;65.80;94356.00;5034896;28;20040;-80
2023/08/30 03:31:50;;;;;;;18.15;7.50;;;;;;;21.66;65.20;94367.34;5036240;28;20104;-80
2023/08/30 03:34:16;;;;;;;14.45;7.53;;;;;;;21.64;66.09;94345.31;5034618;28;20041;-80
2023/08/30 03:36:43;;;;;;;11.60;7.40;;;;;;;21.42;65.70;94358.50;5035161;28;20494;-80
2023/08/30 03:39:09;;;;;;;16.48;8.73;;;;;;;21.40;66.79;94330.31;5034851;28;20033;-81
2023/08/30 03:41:35;;;;;;;14.80;8.07;;;;;;;21.29;66.50;94302.38;5034271;28;20041;-80
2023/08/30 03:44:00;;;;;;;13.30;7.72;;;;;;;21.02;65.70;94285.38;5021660;28;20593;-81
2023/08/30 03:46:26;;;;;;;14.50;7.65;;;;;;;20.48;65.74;94202.09;5019520;28;20029;-81
2023/08/30 03:48:52;;;;;;;19.90;8.02;;;;;;;21.10;66.59;94290.53;5034845;28;20124;-80
2023/08/30 03:51:17;;;;;;;15.02;8.40;;;;;;;21.11;65.28;94286.69;5035850;28;20034;-80
2023/08/30 03:53:43;;;;;;;16.38;8.80;;;;;;;21.33;65.93;94335.59;5035389;28;20033;-80
2023/08/30 03:56:08;;;;;;;20.15;8.00;;;;;;;21.57;66.49;94362.19;5036223;28;20041;-80
2023/08/30 03:58:34;;;;;;;15.68;7.43;;;;;;;21.40;67.20;94347.28;5035663;28;20050;-81
2023/08/30 04:00:59;;;;;;;18.92;9.70;;;;;;;21.61;67.26;94373.00;5034026;28;20040;-81
2023/08/30 04:03:24;;;;;;;23.73;9.95;;;;;;;21.41;68.05;94359.63;5035433;28;20041;-80
2023/08/30 04:05:56;;;;;;;19.88;10.82;;;;;;;21.64;68.23;94383.88;5033880;28;20067;-81
2023/08/30 04:08:22;;;;;;;21.50;10.85;;;;;;;21.37;67.01;94360.69;5035118;28;20036;-81
2023/08/30 04:10:49;;;;;;;20.15;10.07;;;;;;;21.48;67.28;94386.72;5035497;28;20033;-81
2023/08/30 04:13:15;;;;;;;23.38;10.70;;;;;;;21.47;68.22;94354.69;5042305;28;20045;-81
2023/08/30 04:15:40;;;;;;;17.27;10.77;;;;;;;21.33;68.01;94320.19;5033061;28;20056;-81
2023/08/30 04:18:06;;;;;;;23.80;11.38;;;;;;;21.58;68.47;94354.88;5035802;28;20044;-80
2023/08/30 04:20:32;;;;;;;21.33;11.48;;;;;;;21.81;69.33;94394.16;5033583;28;20094;-81
2023/08/30 04:23:01;;;;;;;21.90;11.18;;;;;;;21.66;68.38;94370.81;5033589;28;20524;-81
2023/08/30 04:25:27;;;;;;;26.20;10.55;;;;;;;21.71;69.52;94375.09;5033479;28;20116;-80
2023/08/30 04:27:52;;;;;;;19.20;11.43;;;;;;;22.09;67.91;94404.63;5033287;28;20038;-80
2023/08/30 04:30:18;;;;;;;28.02;12.10;;;;;;;22.10;68.23;94410.78;5034051;28;20056;-81
2023/08/30 04:32:43;;;;;;;21.75;11.70;;;;;;;22.14;68.07;94401.59;5033254;28;20052;-80
2023/08/30 04:35:09;;;;;;;16.77;10.20;;;;;;;22.15;67.36;94408.56;5034696;28;20069;-80
2023/08/30 04:37:35;;;;;;;18.17;10.65;;;;;;;22.13;66.72;94394.63;5035323;28;20060;-80
2023/08/30 04:40:00;;;;;;;19.98;10.07;;;;;;;22.43;66.87;94437.09;5033552;28;20448;-80
2023/08/30 04:42:26;;;;;;;24.60;10.85;;;;;;;22.32;66.03;94418.03;5034876;28;20471;-80
2023/08/30 04:44:54;;;;;;;21.05;10.68;;;;;;;22.50;65.40;94456.13;5033448;28;20492;-81
2023/08/30 04:47:19;;;;;;;23.05;11.30;;;;;;;22.42;65.18;94462.56;5034481;28;20095;-81
2023/08/30 04:49:50;;;;;;;22.33;11.20;;;;;;;21.97;65.17;94399.41;5040384;28;20041;-80
2023/08/30 04:52:16;;;;;;;19.83;10.95;;;;;;;22.45;64.81;94454.50;5048067;28;20037;-81
2023/08/30 04:54:42;;;;;;;20.77;10.80;;;;;;;21.94;64.21;94397.44;5033084;28;20060;-81
2023/08/30 04:57:08;;;;;;;30.08;11.35;;;;;;;22.16;63.59;94426.31;5033685;28;20057;-83
2023/08/30 04:59:33;;;;;;;23.85;11.23;;;;;;;22.28;63.82;94431.50;5021319;28;20471;-80
2023/08/30 05:01:59;;;;;;;21.10;10.60;;;;;;;22.05;63.52;94408.41;5026349;28;20083;-81
2023/08/30 05:04:24;;;;;;;23.33;11.63;;;;;;;22.30;63.33;94431.13;5030544;28;20041;-79
2023/08/30 05:06:50;;;;;;;31.92;11.02;;;;;;;22.17;63.61;94411.69;5033024;28;20095;-82
2023/08/30 05:09:16;;;;;;;30.23;10.82;;;;;;;22.36;62.35;94435.06;5033541;28;20029;-82
2023/08/30 05:11:41;;;;;;;19.85;9.60;;;;;;;22.13;62.36;94402.72;5034090;28;20258;-81
2023/08/30 05:14:06;;;;;;;30.08;11.00;;;;;;;22.33;62.18;94433.13;5044228;28;20040;-81
2023/08/30 05:16:32;;;;;;;28.05;10.57;;;;;;;22.14;62.50;94417.00;5035365;28;20037;-81
2023/08/30 05:18:57;;;;;;;21.88;10.35;;;;;;;22.11;61.97;94440.16;5038172;28;20033;-78
2023/08/30 05:21:23;;;;;;;25.63;10.80;;;;;;;22.23;62.06;94431.81;5033733;28;20042;-79
2023/08/30 05:23:48;;;;;;;20.88;10.20;;;;;;;22.20;62.11;94419.03;5035483;28;20045;-78
2023/08/30 05:26:16;;;;;;;21.65;9.55;;;;;;;22.29;61.32;94426.88;5026005;28;20029;-79
2023/08/30 05:28:42;;;;;;;17.70;8.70;;;;;;;22.22;60.38;94432.16;5031516;28;20031;-79
2023/08/30 05:31:07;;;;;;;20.58;8.85;;;;;;;22.21;59.43;94447.59;5026544;28;20128;-86
2023/08/30 05:33:32;;;;;;;21.70;8.65;;;;;;;22.13;59.14;94462.13;5029306;28;20029;-86
2023/08/30 05:35:58;;;;;;;14.18;6.78;;;;;;;21.74;57.27;94401.38;5031154;28;20033;-85
2023/08/30 05:38:23;;;;;;;12.00;5.95;;;;;;;21.41;57.24;94402.00;5031757;28;20050;-84
2023/08/30 05:40:49;;;;;;;9.15;4.07;;;;;;;21.52;56.14;94460.38;5032654;28;20029;-85
2023/08/30 05:43:16;;;;;;;8.50;4.53;;;;;;;21.03;56.54;94392.06;5032294;28;20046;-85
2023/08/30 05:45:41;;;;;;;13.18;4.65;;;;;;;21.22;57.24;94442.50;5031229;28;20083;-86
2023/08/30 05:48:07;;;;;;;14.70;4.90;;;;;;;20.82;57.91;94419.41;5031025;28;20033;-85
2023/08/30 05:50:32;;;;;;;11.10;4.50;;;;;;;21.07;57.76;94447.59;5019738;28;20289;-86
2023/08/30 05:52:57;;;;;;;11.10;4.93;;;;;;;20.92;58.15;94428.81;5027901;28;20128;-86
2023/08/30 05:55:23;;;;;;;18.58;5.53;;;;;;;21.07;58.09;94436.03;5027490;28;20048;-85
2023/08/30 05:57:48;;;;;;;14.40;4.93;;;;;;;20.98;57.62;94389.69;5024474;28;20053;-85
2023/08/30 06:00:14;;;;;;;12.68;4.88;;;;;;;21.41;57.17;94428.97;5031902;28;20030;-87
2023/08/30 06:02:40;;;;;;;12.20;4.97;;;;;;;21.49;56.96;94428.75;5030411;28;20037;-86
2023/08/30 06:05:06;;;;;;;13.65;4.90;;;;;;;21.66;56.79;94442.88;5030406;28;20037;-87
2023/08/30 06:07:32;;;;;;;18.30;4.93;;;;;;;21.74;56.35;94444.56;5032596;28;20404;-86
2023/08/30 06:09:58;;;;;;;18.00;5.05;;;;;;;21.81;56.11;94442.75;5031159;28;20060;-85
2023/08/30 06:12:25;;;;;;;15.50;4.53;;;;;;;21.77;56.37;94423.00;5031274;28;20044;-86
2023/08/30 06:14:52;;;;;;;12.32;5.68;;;;;;;22.10;57.02;94452.09;5018567;28;20034;-85
2023/08/30 06:17:19;;;;;;;20.60;5.32;;;;;;;22.17;55.82;94427.09;5027738;28;20067;-86
2023/08/30 06:19:45;;;;;;;13.75;5.32;;;;;;;22.36;55.18;94437.00;5031593;28;20025;-87
2023/08/30 06:22:10;;;;;;;17.90;5.60;;;;;;;22.42;55.08;94449.06;5030682;28;20043;-87
2023/08/30 06:24:36;;;;;;;12.88;4.85;;;;;;;22.27;54.84;94434.56;5029916;28;20033;-86
2023/08/30 06:27:01;;;;;;;17.85;5.40;;;;;;;22.57;54.52;94440.00;5030879;28;20120;-85
2023/08/30 06:29:27;;;;;;;13.68;5.03;;;;;;;22.56;54.41;94424.91;5032157;28;20496;-79
2023/08/30 06:31:52;;;;;;;10.18;4.95;;;;;;;22.75;53.48;94434.81;5035983;28;20029;-79
2023/08/30 06:34:18;;;;;;;14.27;5.00;;;;;;;22.50;53.76;94429.88;5032784;28;20029;-79
2023/08/30 06:36:43;;;;;;;13.25;5.97;;;;;;;22.75;53.33;94448.31;5035629;28;20544;-79
2023/08/30 06:39:08;;;;;;;16.05;5.70;;;;;;;22.79;53.35;94446.47;5030920;28;20045;-84
2023/08/30 06:41:34;;;;;;;14.05;4.80;;;;;;;22.62;53.73;94442.34;5025270;28;20037;-84
2023/08/30 06:43:59;;;;;;;14.13;5.10;;;;;;;22.77;53.74;94454.16;5015879;28;20038;-84
2023/08/30 06:46:25;;;;;;;12.63;5.60;;;;;;;22.90;53.74;94440.03;5015374;28;20049;-84
2023/08/30 06:48:50;;;;;;;11.55;5.32;;;;;;;22.89;52.34;94437.69;5025373;28;20124;-84
2023/08/30 06:51:15;;;;;;;17.17;5.45;;;;;;;22.93;52.34;94444.69;5033991;28;20454;-84
2023/08/30 06:53:41;;;;;;;17.00;5.15;;;;;;;23.15;52.43;94447.63;5032336;28;20053;-84
2023/08/30 06:56:06;;;;;;;13.10;4.88;;;;;;;23.25;51.77;94444.28;5031923;28;20037;-84
2023/08/30 06:58:32;;;;;;;13.00;5.20;;;;;;;23.26;51.38;94433.09;5029251;28;20111;-84
2023/08/30 07:00:58;;;;;;;10.35;5.03;;;;;;;23.29;50.29;94412.59;5033250;28;20039;-84
2023/08/30 07:03:23;;;;;;;11.38;4.65;;;;;;;23.19;50.16;94408.66;5031887;28;20485;-84
2023/08/30 07:05:54;;;;;;;13.48;5.88;;;;;;;23.54;50.34;94435.28;5033382;28;20037;-83
2023/08/30 07:08:19;;;;;;;12.70;4.90;;;;;;;23.57;49.81;94448.09;5032550;28;20044;-83
2023/08/30 07:10:45;;;;;;;10.73;4.75;;;;;;;23.72;49.78;94449.78;5031239;28;20033;-84
2023/08/30 07:13:11;;;;;;;10.38;4.60;;;;;;;23.73;49.99;94445.88;5032011;28;20025;-85
2023/08/30 07:15:39;;;;;;;9.65;5.05;;;;;;;23.26;49.58;94353.84;5030267;28;20017;-84
2023/08/30 07:18:05;;;;;;;17.25;6.13;;;;;;;23.61;50.01;94405.59;5028164;28;20034;-84
2023/08/30 07:20:31;;;;;;;15.80;5.50;;;;;;;23.92;50.15;94453.00;5033027;28;20036;-84
2023/08/30 07:22:56;;;;;;;18.90;5.30;;;;;;;23.72;48.42;94409.16;5032178;28;20030;-84
2023/08/30 07:25:22;;;;;;;7.45;4.32;;;;;;;23.72;48.35;94409.16;5033611;28;20400;-84
2023/08/30 07:27:47;;;;;;;13.10;5.18;;;;;;;23.82;49.41;94440.16;5032913;28;20029;-84
2023/08/30 07:30:13;;;;;;;9.27;5.22;;;;;;;23.74;50.51;94443.97;5031829;28;20112;-84
2023/08/30 07:32:38;;;;;;;14.25;6.00;;;;;;;23.79;50.14;94452.53;5020609;28;20026;-84
2023/08/30 07:35:05;;;;;;;11.68;5.25;;;;;;;23.72;50.25;94452.47;5031688;28;20120;-84
2023/08/30 07:37:30;;;;;;;9.43;5.25;;;;;;;23.82;50.75;94451.78;5026553;28;20044;-84
2023/08/30 07:39:56;;;;;;;17.73;5.63;;;;;;;23.67;51.36;94449.31;5035629;28;20034;-86
2023/08/30 07:42:21;;;;;;;18.02;6.25;;;;;;;23.61;51.15;94411.00;5035075;28;20139;-87
2023/08/30 07:44:47;;;;;;;12.80;6.10;;;;;;;23.87;50.43;94434.41;5050936;28;20044;-85
2023/08/30 07:47:12;;;;;;;13.02;5.32;;;;;;;23.96;50.02;94431.38;5031676;28;20034;-86
2023/08/30 07:49:38;;;;;;;17.45;5.95;;;;;;;24.04;49.97;94438.38;5032592;28;20089;-80
2023/08/30 07:52:04;;;;;;;13.35;5.32;;;;;;;24.11;49.29;94444.63;5032716;28;20056;-80
2023/08/30 07:54:30;;;;;;;16.80;5.20;;;;;;;24.06;49.56;94436.09;5032113;28;20025;-81
2023/08/30 07:56:56;;;;;;;20.27;6.65;;;;;;;23.97;50.26;94427.50;5030806;28;20104;-80
2023/08/30 07:59:21;;;;;;;17.73;5.80;;;;;;;23.88;50.84;94427.06;5032606;28;20438;-80
2023/08/30 08:01:47;;;;;;;14.52;6.18;;;;;;;23.74;50.87;94416.91;5034500;28;20105;-80
2023/08/30 08:04:12;;;;;;;13.90;5.65;;;;;;;23.76;50.40;94433.53;5033662;28;20091;-79
2023/08/30 08:06:38;;;;;;;12.00;4.78;;;;;;;23.76;48.68;94442.44;5031142;28;20076;-80
2023/08/30 08:09:04;;;;;;;14.32;4.93;;;;;;;23.86;48.77;94427.44;5026352;28;20029;-80
2023/08/30 08:11:30;;;;;;;17.63;5.38;;;;;;;23.93;49.67;94415.88;5030802;28;20040;-80
2023/08/30 08:13:55;;;;;;;11.98;5.60;;;;;;;23.63;49.39;94389.75;5027228;28;20455;-79
2023/08/30 08:16:21;;;;;;;15.30;5.28;;;;;;;23.82;49.15;94413.88;5029980;28;20033;-80
2023/08/30 08:18:47;;;;;;;14.75;6.30;;;;;;;24.20;49.04;94441.63;5031228;28;20033;-80
2023/08/30 08:21:13;;;;;;;21.70;6.75;;;;;;;24.18;50.02;94436.53;5032671;28;20172;-81
2023/08/30 08:23:38;;;;;;;12.90;5.97;;;;;;;24.34;50.16;94433.56;5023593;28;20037;-80
2023/08/30 08:26:03;;;;;;;12.07;5.13;;;;;;;24.56;48.33;94456.19;5033860;28;20034;-80
2023/08/30 08:28:29;;;;;;;19.95;6.13;;;;;;;24.55;47.35;94443.78;5034182;28;20032;-80
2023/08/30 08:30:55;;;;;;;14.82;4.20;;;;;;;24.44;46.94;94407.69;5026688;28;20103;-80
2023/08/30 08:33:22;;;;;;;16.70;5.65;;;;;;;24.75;47.42;94439.59;5026994;28;20033;-80
2023/08/30 08:35:49;;;;;;;13.48;5.10;;;;;;;24.72;45.76;94428.75;5032405;28;20025;-80
2023/08/30 08:38:14;;;;;;;11.27;4.32;;;;;;;24.74;43.66;94456.25;5031431;28;20042;-80
2023/08/30 08:40:40;;;;;;;8.60;3.55;;;;;;;24.88;43.92;94448.16;5039816;28;20033;-80
2023/08/30 08:43:06;;;;;;;14.77;4.30;;;;;;;24.92;42.86;94451.72;5031512;28;20040;-80
2023/08/30 08:45:37;;;;;;;6.80;3.47;;;;;;;24.84;42.83;94459.03;5029249;28;20550;-80
2023/08/30 08:48:07;;;;;;;12.88;4.03;;;;;;;24.68;43.04;94460.50;5034650;28;20607;-80
2023/08/30 08:50:33;;;;;;;13.10;4.05;;;;;;;24.59;44.34;94464.31;5025985;28;20051;-84
2023/08/30 08:52:59;;;;;;;13.02;4.85;;;;;;;24.56;44.01;94454.22;5034876;28;20037;-85
2023/08/30 08:55:29;;;;;;;9.02;4.10;;;;;;;24.77;43.74;94447.38;5033544;28;20037;-84
2023/08/30 08:57:56;;;;;;;8.80;4.65;;;;;;;24.91;43.68;94452.88;5022950;28;20060;-84
2023/08/30 09:00:22;;;;;;;8.35;3.60;;;;;;;24.73;42.94;94451.97;5025479;28;20129;-79
2023/08/30 09:02:51;;;;;;;11.02;3.83;;;;;;;24.54;42.95;94432.16;5033949;28;20061;-79
2023/08/30 09:05:16;;;;;;;6.38;3.33;;;;;;;24.78;43.48;94438.84;5035578;28;20063;-79
2023/08/30 09:07:42;;;;;;;15.13;4.28;;;;;;;24.88;43.77;94448.94;5030258;28;20552;-79
2023/08/30 09:10:08;;;;;;;9.02;4.15;;;;;;;25.04;43.96;94445.16;5023783;28;20033;-79
2023/08/30 09:12:35;;;;;;;6.70;3.53;;;;;;;25.16;43.68;94447.53;5032770;28;20040;-81
2023/08/30 09:15:00;;;;;;;12.32;4.53;;;;;;;25.10;43.92;94424.66;5034002;28;20582;-80
2023/08/30 09:17:39;;;;;;;9.45;4.45;;;;;;;25.24;44.08;94441.75;5036400;28;20116;-80
2023/08/30 09:20:14;;;;;;;10.73;4.10;;;;;;;25.32;44.05;94450.69;5034923;28;20017;-80
2023/08/30 09:22:40;;;;;;;12.07;4.88;;;;;;;25.45;43.99;94441.00;5033587;28;20112;-80
2023/08/30 09:25:10;;;;;;;8.80;4.07;;;;;;;25.44;43.38;94434.03;5027980;28;20037;-80
2023/08/30 09:27:38;;;;;;;11.02;4.53;;;;;;;25.20;43.43;94402.97;5022946;28;20428;-79
2023/08/30 09:30:10;;;;;;;14.80;5.47;;;;;;;25.44;43.42;94430.53;5034742;28;20484;-80
2023/08/30 09:32:40;;;;;;;17.45;4.68;;;;;;;25.38;43.38;94435.56;5034624;28;20102;-79
2023/08/30 09:35:06;;;;;;;13.35;4.25;;;;;;;25.20;43.48;94421.97;5026241;28;20030;-79
2023/08/30 09:37:32;;;;;;;9.00;4.38;;;;;;;25.14;43.29;94412.66;5029010;28;20610;-79
2023/08/30 09:39:57;;;;;;;12.45;4.05;;;;;;;25.45;43.28;94445.66;5032693;28;20036;-80
2023/08/30 09:42:23;;;;;;;11.35;4.65;;;;;;;25.32;42.54;94410.75;5032378;28;20124;-81
2023/08/30 09:44:49;;;;;;;9.98;4.07;;;;;;;25.51;42.75;94412.31;5032050;28;20542;-79
2023/08/30 09:47:16;;;;;;;17.42;5.07;;;;;;;25.83;42.97;94433.31;5033455;28;20033;-80
2023/08/30 09:49:45;;;;;;;15.25;6.28;;;;;;;26.02;41.74;94425.53;5030696;28;20022;-79
2023/08/30 09:52:14;;;;;;;11.90;4.32;;;;;;;26.00;41.78;94403.44;5035094;28;20033;-80
2023/08/30 09:54:43;;;;;;;11.80;4.90;;;;;;;26.13;42.12;94410.00;5025952;28;20037;-79
2023/08/30 09:57:12;;;;;;;10.07;4.70;;;;;;;26.04;41.33;94359.94;5030366;28;20060;-80
2023/08/30 09:59:39;;;;;;;8.55;4.40;;;;;;;27.15;40.23;94419.03;5023697;28;20225;-79
2023/08/30 10:02:05;;;;;;;8.35;4.22;;;;;;;27.91;39.14;94417.38;5030203;28;20060;-80
2023/08/30 10:04:31;;;;;;;12.73;4.70;;;;;;;28.63;38.22;94415.53;5037580;28;20028;-80
2023/08/30 10:06:58;;;;;;;8.77;3.42;;;;;;;29.31;36.64;94374.50;5031847;28;20033;-80
2023/08/30 10:09:24;;;;;;;10.57;4.28;;;;;;;30.33;35.38;94393.97;5018409;28;20034;-85
2023/08/30 10:11:50;;;;;;;6.10;3.67;;;;;;;31.14;34.20;94407.28;5027886;28;20557;-84
2023/08/30 10:14:17;;;;;;;13.88;5.13;;;;;;;31.60;32.22;94404.31;5025495;28;20037;-84
2023/08/30 10:16:44;;;;;;;10.45;4.10;;;;;;;31.77;31.59;94396.91;5025484;28;20030;-84
2023/08/30 10:19:14;;;;;;;9.90;4.32;;;;;;;31.65;31.27;94383.88;5030413;28;20037;-84
2023/08/30 10:21:41;;;;;;;12.23;5.07;;;;;;;31.99;30.81;94367.00;5029229;28;20029;-82
2023/08/30 10:24:10;;;;;;;10.68;4.07;;;;;;;31.97;30.60;94366.63;5021818;28;20032;-84
2023/08/30 10:26:38;;;;;;;12.10;4.30;;;;;;;32.23;30.67;94367.59;5030110;28;20039;-83
2023/08/30 10:29:05;;;;;;;9.18;4.40;;;;;;;32.19;30.28;94351.97;5030510;28;20021;-84
2023/08/30 10:31:31;;;;;;;9.52;4.28;;;;;;;32.09;30.08;94363.22;5032674;28;20040;-84
2023/08/30 10:33:56;;;;;;;10.07;4.88;;;;;;;32.10;30.71;94406.66;5028748;28;20029;-83
2023/08/30 10:36:23;;;;;;;8.68;4.65;;;;;;;32.00;30.77;94387.72;5031161;28;20030;-84
2023/08/30 10:38:50;;;;;;;9.63;4.05;;;;;;;31.74;30.77;94364.84;5032236;28;20124;-84
2023/08/30 10:41:21;;;;;;;10.18;4.15;;;;;;;31.79;31.36;94389.03;5026866;28;20176;-85
2023/08/30 10:43:51;;;;;;;24.58;4.55;;;;;;;31.37;32.84;94379.78;5028983;28;20120;-85
2023/08/30 10:46:17;;;;;;;10.02;4.53;;;;;;;30.89;32.21;94325.69;5028916;28;20550;-85
2023/08/30 10:48:43;;;;;;;7.93;4.35;;;;;;;30.94;32.10;94366.22;5032648;28;20057;-85
2023/08/30 10:51:35;;;;;;;11.32;4.28;;;;;;;30.62;32.78;94372.34;5049764;28;20124;-85
2023/08/30 10:54:00;;;;;;;12.52;5.25;;;;;;;30.24;33.49;94361.72;5032210;28;20041;-85
2023/08/30 10:56:34;;;;;;;10.27;4.32;;;;;;;29.82;34.24;94362.44;5031755;28;20148;-85
2023/08/30 10:59:02;;;;;;;9.65;4.55;;;;;;;29.80;34.02;94373.00;5031666;28;20034;-85
2023/08/30 11:01:28;;;;;;;11.98;4.45;;;;;;;29.78;34.18;94375.38;5020993;28;20034;-85
2023/08/30 11:03:55;;;;;;;9.80;4.43;;;;;;;29.80;34.59;94378.47;5025706;28;20056;-85
2023/08/30 11:06:23;;;;;;;12.20;4.43;;;;;;;29.66;34.44;94384.94;5019085;28;20034;-85
2023/08/30 11:08:49;;;;;;;11.75;5.50;;;;;;;29.65;34.58;94358.03;5033575;28;20462;-80
2023/08/30 11:11:15;;;;;;;11.68;4.95;;;;;;;29.69;34.90;94353.28;5034234;28;20519;-80
2023/08/30 11:13:41;;;;;;;11.63;4.97;;;;;;;29.83;34.97;94364.00;5047641;28;20033;-81
2023/08/30 11:16:07;;;;;;;11.27;5.30;;;;;;;30.07;34.53;94364.75;5034952;28;20038;-80
2023/08/30 11:18:42;;;;;;;8.23;4.70;;;;;;;30.05;34.22;94334.34;5035468;28;20029;-80
2023/08/30 11:21:09;;;;;;;8.80;4.93;;;;;;;30.32;34.27;94367.81;5040529;28;20026;-80